PANW

Details ICAO PANW (KNW)
Name NEW STUYAHOK
Region USA (Alaska)
Timezone America/Anchorage (UTC-9.0)
Plans Departing 0
Arriving 0
Stats Elevation 302 ft / 92 m (AMSL)
Location 59.449875° -157.328317°
Runways 1
Magnetic Variation 13.278° E
Sunrise 2017-12-12 19:19:55 UTC / 2017-12-12 10:19:55 Local
Sunset 2017-12-13 01:29:26 UTC / 2017-12-12 16:29:26 Local
Advertisement - Login to hide

Runways

ID Width Length Bearing (true) Bearing (mag) Surface Threshold Offset Overrun Length
15 50 ft / 15 m 1,798 ft / 548 m 172.76° 159.48° Gravel 0 ft / 0 m 160 ft / 49 m
33 50 ft / 15 m 1,798 ft / 548 m 352.76° 339.48° Gravel 0 ft / 0 m 200 ft / 61 m

Map

Weather


0- 5 10 15 20 25 30 35+ Temperature / ° C

Clouds and Precipitation
Forecast for 2017-12-13 00:00 UTC. Updated an hour ago

Ground ~20,000 ft ~40,000 ft Winds

METAR

PANW 122156Z AUTO 09012G17KT 10SM BKN050 OVC085 04/02 A2935 RMK AO2 SLP956 T00390017

TAF

Not found

Frequencies

Unicom 122.90 MHz CTAF
Approach 132.75 MHz ANCHORAGE CNTR
Warning: Do not use this data for real-world aviation or navigation. No guarantee of current accuracy is given.